createdAt,value
2023-05-19T00:02:16.372Z,16.56
2023-05-19T00:04:45.252Z,16.57
2023-05-19T00:07:18.339Z,16.56
2023-05-19T00:09:47.172Z,16.56
2023-05-19T00:12:16.530Z,16.54
2023-05-19T00:14:44.979Z,16.53
2023-05-19T00:17:13.565Z,16.51
2023-05-19T00:19:42.131Z,16.51
2023-05-19T00:22:10.300Z,16.52
2023-05-19T00:24:38.602Z,16.50
2023-05-19T00:27:07.075Z,16.50
2023-05-19T00:29:35.283Z,16.49
2023-05-19T00:32:03.693Z,16.46
2023-05-19T00:34:32.080Z,16.46
2023-05-19T00:37:00.320Z,16.44
2023-05-19T00:39:28.523Z,16.45
2023-05-19T00:41:56.946Z,16.45
2023-05-19T00:44:25.346Z,16.46
2023-05-19T00:46:54.172Z,16.44
2023-05-19T00:49:22.424Z,16.44
2023-05-19T00:51:51.532Z,16.43
2023-05-19T00:54:21.477Z,16.44
2023-05-19T00:56:50.230Z,16.43
2023-05-19T00:59:19.154Z,16.44
2023-05-19T01:01:49.552Z,16.43
2023-05-19T01:04:20.760Z,16.40
2023-05-19T01:06:55.390Z,16.40
2023-05-19T01:09:24.281Z,16.37
2023-05-19T01:11:52.709Z,16.35
2023-05-19T01:14:21.912Z,16.35
2023-05-19T01:16:59.390Z,16.33
2023-05-19T01:19:51.201Z,16.30
2023-05-19T01:22:43.230Z,16.25
2023-05-19T01:25:20.723Z,16.21
2023-05-19T01:28:07.642Z,16.21
2023-05-19T01:30:43.798Z,16.16
2023-05-19T01:33:17.276Z,16.13
2023-05-19T01:35:46.873Z,16.11
2023-05-19T01:38:17.883Z,16.09
2023-05-19T01:40:48.234Z,16.08
2023-05-19T01:43:21.686Z,16.08
2023-05-19T01:45:51.338Z,16.02
2023-05-19T01:48:20.028Z,16.01
2023-05-19T01:50:48.264Z,15.94
2023-05-19T01:53:17.260Z,16.00
2023-05-19T01:55:48.422Z,16.00
2023-05-19T01:58:47.828Z,16.04
2023-05-19T02:01:56.957Z,16.00
2023-05-19T02:04:45.553Z,15.95
2023-05-19T02:07:21.606Z,15.97
2023-05-19T02:10:05.423Z,15.95
2023-05-19T02:12:38.061Z,15.95
2023-05-19T02:15:08.255Z,15.91
2023-05-19T02:17:43.388Z,15.87
2023-05-19T02:20:12.226Z,15.83
2023-05-19T02:22:41.308Z,15.83
2023-05-19T02:25:10.123Z,15.83
2023-05-19T02:27:39.347Z,15.82
2023-05-19T02:30:10.170Z,15.81
2023-05-19T02:32:38.670Z,15.79
2023-05-19T02:35:07.162Z,15.79
2023-05-19T02:37:35.789Z,15.78
2023-05-19T02:40:04.779Z,15.78
2023-05-19T02:42:33.460Z,15.75
2023-05-19T02:45:01.867Z,15.76
2023-05-19T02:47:30.531Z,15.72
2023-05-19T02:49:58.780Z,15.70
2023-05-19T02:52:27.416Z,15.67
2023-05-19T02:54:55.658Z,15.63
2023-05-19T02:57:24.944Z,15.63
2023-05-19T02:59:53.416Z,15.62
2023-05-19T03:02:22.424Z,15.63
2023-05-19T03:04:51.749Z,15.62
2023-05-19T03:07:25.681Z,15.63
2023-05-19T03:09:54.496Z,15.64
2023-05-19T03:12:23.016Z,15.61
2023-05-19T03:14:51.379Z,15.61
2023-05-19T03:17:20.068Z,15.64
2023-05-19T03:19:49.018Z,15.68
2023-05-19T03:22:18.941Z,15.65
2023-05-19T03:24:47.699Z,15.66
2023-05-19T03:27:16.915Z,15.62
2023-05-19T03:29:45.426Z,15.61
2023-05-19T03:32:13.880Z,15.65
2023-05-19T03:34:42.819Z,15.64
2023-05-19T03:37:11.270Z,15.58
2023-05-19T03:39:41.181Z,15.54
2023-05-19T03:42:09.413Z,15.53
2023-05-19T03:44:37.586Z,15.45
2023-05-19T03:47:06.481Z,15.45
2023-05-19T03:50:02.721Z,15.41
2023-05-19T19:32:39.415Z,13.84
2023-05-19T19:35:08.539Z,13.85
2023-05-19T19:37:36.990Z,13.96
2023-05-19T19:40:05.719Z,14.08
2023-05-19T19:42:34.139Z,14.19
2023-05-19T19:45:02.991Z,14.30
2023-05-19T19:47:31.624Z,14.40
2023-05-19T19:50:01.588Z,14.48
2023-05-19T19:52:30.468Z,14.54
2023-05-19T19:55:01.696Z,14.60
2023-05-19T19:57:31.942Z,14.66
2023-05-19T20:00:08.656Z,14.66
2023-05-19T20:02:45.579Z,14.71
2023-05-19T20:05:24.036Z,14.71
2023-05-19T20:07:52.465Z,14.72
2023-05-19T20:10:20.789Z,14.73
2023-05-19T20:12:51.341Z,14.73
2023-05-19T20:15:19.971Z,14.74
2023-05-19T20:17:48.352Z,14.75
2023-05-19T20:20:16.994Z,14.75
2023-05-19T20:22:46.518Z,14.75
2023-05-19T20:25:15.091Z,14.77
2023-05-19T20:27:43.449Z,14.74
2023-05-19T20:30:12.345Z,14.77
2023-05-19T20:32:40.933Z,14.79
2023-05-19T20:35:09.578Z,14.81
2023-05-19T20:37:37.769Z,14.83
2023-05-19T20:40:06.729Z,14.83
2023-05-19T20:42:35.252Z,14.86
2023-05-19T20:45:03.699Z,14.88
2023-05-19T20:47:32.091Z,14.89
2023-05-19T20:50:00.539Z,14.90
2023-05-19T20:52:28.776Z,14.91
2023-05-19T20:54:57.090Z,14.90
2023-05-19T20:57:27.156Z,14.86
2023-05-19T20:59:57.050Z,14.87
2023-05-19T21:02:25.428Z,14.89
2023-05-19T21:04:53.952Z,14.89
2023-05-19T21:07:22.252Z,14.89
2023-05-19T21:09:51.856Z,14.91
2023-05-19T21:12:24.254Z,14.93
2023-05-19T21:14:52.704Z,14.93
2023-05-19T21:17:21.780Z,14.95
2023-05-19T21:19:50.684Z,14.94
2023-05-19T21:22:19.230Z,14.96
2023-05-19T21:24:48.052Z,14.95
2023-05-19T21:27:16.417Z,14.97
2023-05-19T21:29:45.010Z,14.97
2023-05-19T21:32:13.251Z,14.97
2023-05-19T21:34:41.623Z,14.97
2023-05-19T21:37:10.095Z,14.99
2023-05-19T21:39:38.417Z,15.01
2023-05-19T21:42:06.826Z,14.97
2023-05-19T21:44:50.913Z,14.95
2023-05-19T21:47:19.336Z,14.95
2023-05-19T21:49:47.670Z,14.90
2023-05-19T21:52:16.361Z,14.94
2023-05-19T21:54:44.748Z,14.93
2023-05-19T21:57:13.035Z,14.91
2023-05-19T21:59:41.352Z,14.89
2023-05-19T22:02:09.770Z,14.87
2023-05-19T22:04:38.937Z,14.87
2023-05-19T22:07:07.439Z,14.87
2023-05-19T22:09:35.994Z,14.90
2023-05-19T22:12:04.703Z,14.90
2023-05-19T22:14:33.237Z,14.93
2023-05-19T22:17:01.505Z,14.97
2023-05-19T22:19:30.208Z,14.97
2023-05-19T22:22:02.408Z,14.98
2023-05-19T22:24:41.197Z,14.99
2023-05-19T22:27:09.857Z,14.99
2023-05-19T22:29:39.373Z,14.99
2023-05-19T22:32:12.406Z,15.00
2023-05-19T22:34:40.880Z,15.01
2023-05-19T22:37:09.905Z,15.03
2023-05-19T22:39:39.864Z,15.02
2023-05-19T22:42:08.436Z,15.01
2023-05-19T22:44:36.902Z,15.02
2023-05-19T22:47:05.943Z,15.02
2023-05-19T22:49:34.351Z,15.02
2023-05-19T22:52:02.696Z,15.02
2023-05-19T22:54:31.780Z,15.02
2023-05-19T22:57:00.196Z,14.96
2023-05-19T22:59:28.480Z,14.96
2023-05-19T23:01:56.953Z,14.97
2023-05-19T23:04:25.405Z,14.94
2023-05-19T23:06:53.856Z,14.94
2023-05-19T23:09:22.276Z,14.91
2023-05-19T23:11:50.915Z,14.94
2023-05-19T23:14:19.491Z,14.92
2023-05-19T23:16:48.739Z,14.90
2023-05-19T23:19:17.430Z,14.83
2023-05-19T23:21:46.259Z,14.78
2023-05-19T23:24:14.488Z,14.80
2023-05-19T23:26:44.347Z,14.81
2023-05-19T23:29:13.527Z,14.80
2023-05-19T23:31:42.575Z,14.79
2023-05-19T23:34:11.288Z,14.80
2023-05-19T23:36:40.312Z,14.82
2023-05-19T23:39:08.735Z,14.82
2023-05-19T23:41:37.713Z,14.83
2023-05-19T23:44:06.133Z,14.84
2023-05-19T23:46:34.546Z,14.82
2023-05-19T23:49:02.899Z,14.83
2023-05-19T23:51:31.664Z,14.81
2023-05-19T23:54:00.677Z,14.78
2023-05-19T23:56:28.860Z,14.83
2023-05-19T23:58:57.096Z,14.82
